createdAt,value
2022-07-31T00:00:23.575Z,101094.28
2022-07-31T00:02:51.623Z,101099.59
2022-07-31T00:05:19.479Z,101097.72
2022-07-31T00:07:48.590Z,101092.81
2022-07-31T00:10:16.772Z,101097.19
2022-07-31T00:12:44.544Z,101095.19
2022-07-31T00:15:13.598Z,101097.59
2022-07-31T00:17:42.033Z,101090.75
2022-07-31T00:20:13.368Z,101100.41
2022-07-31T00:22:41.323Z,101095.53
2022-07-31T00:25:12.478Z,101093.84
2022-07-31T00:27:40.595Z,101092.41
2022-07-31T00:30:09.728Z,101092.38
2022-07-31T00:32:37.498Z,101080.41
2022-07-31T00:35:05.808Z,101078.63
2022-07-31T00:37:36.475Z,101082.56
2022-07-31T00:40:06.198Z,101080.53
2022-07-31T00:42:36.170Z,101075.16
2022-07-31T00:45:04.775Z,101073.00
2022-07-31T00:47:33.587Z,101071.41
2022-07-31T00:50:01.649Z,101078.69
2022-07-31T00:52:29.413Z,101078.56
2022-07-31T00:54:57.298Z,101076.59
2022-07-31T00:57:25.077Z,101075.25
2022-07-31T00:59:54.291Z,101073.56
2022-07-31T01:02:22.076Z,101074.81
2022-07-31T01:04:49.850Z,101086.78
2022-07-31T01:07:18.033Z,101081.88
2022-07-31T01:09:49.854Z,101080.47
2022-07-31T01:12:22.464Z,101082.13
2022-07-31T01:14:58.033Z,101072.22
2022-07-31T01:17:27.672Z,101077.56
2022-07-31T01:19:55.684Z,101074.34
2022-07-31T01:22:45.626Z,101077.06
2022-07-31T01:25:23.300Z,101077.13
2022-07-31T01:28:03.517Z,101083.53
2022-07-31T01:30:36.615Z,101084.81
2022-07-31T01:33:10.306Z,101087.91
2022-07-31T01:35:43.523Z,101093.59
2022-07-31T01:38:15.136Z,101104.91
2022-07-31T01:40:45.358Z,101133.38
2022-07-31T01:43:17.382Z,101150.38
2022-07-31T01:45:51.233Z,101148.53
2022-07-31T01:48:19.747Z,101149.66
2022-07-31T01:50:49.646Z,101163.09
2022-07-31T01:53:21.157Z,101159.41
2022-07-31T01:56:02.408Z,101141.81
2022-07-31T01:58:36.707Z,101148.88
2022-07-31T02:01:08.921Z,101138.13
2022-07-31T02:03:44.432Z,101156.78
2022-07-31T02:06:15.898Z,101174.13
2022-07-31T02:08:46.365Z,101169.97
2022-07-31T02:11:16.780Z,101181.13
2022-07-31T02:13:45.465Z,101184.69
2022-07-31T02:16:15.947Z,101183.22
2022-07-31T02:18:44.454Z,101201.09
2022-07-31T02:21:12.290Z,101220.28
2022-07-31T02:23:40.146Z,101216.47
2022-07-31T02:26:08.694Z,101220.63
2022-07-31T02:28:39.012Z,101219.59
2022-07-31T02:31:11.635Z,101219.63
2022-07-31T02:33:44.936Z,101226.31
2022-07-31T02:36:14.911Z,101225.16
2022-07-31T02:38:44.633Z,101226.81
2022-07-31T02:41:14.097Z,101231.97
2022-07-31T02:43:42.611Z,101233.81
2022-07-31T02:46:11.605Z,101243.34
2022-07-31T02:48:41.550Z,101245.19
2022-07-31T02:51:09.825Z,101253.22
2022-07-31T02:53:38.941Z,101253.03
2022-07-31T02:56:09.302Z,101243.03
2022-07-31T02:58:39.503Z,101245.19
2022-07-31T03:01:07.652Z,101246.19
2022-07-31T03:03:36.106Z,101240.34
2022-07-31T03:06:05.609Z,101227.59
2022-07-31T03:08:33.386Z,101220.66
2022-07-31T03:11:01.391Z,101223.09
2022-07-31T03:13:31.565Z,101220.47
2022-07-31T03:15:59.852Z,101228.47
2022-07-31T03:18:28.260Z,101209.28
2022-07-31T03:20:57.345Z,101217.13
2022-07-31T03:23:36.045Z,101215.91
2022-07-31T03:26:04.445Z,101206.59
2022-07-31T03:28:32.741Z,101206.91
2022-07-31T03:31:00.638Z,101203.44
2022-07-31T03:33:28.932Z,101206.09
2022-07-31T03:35:57.982Z,101200.56
2022-07-31T03:38:38.633Z,101205.47
2022-07-31T03:41:10.390Z,101203.25
2022-07-31T03:43:47.072Z,101202.09
2022-07-31T03:46:18.187Z,101189.16
2022-07-31T03:48:46.621Z,101173.59
2022-07-31T03:51:15.377Z,101160.69
2022-07-31T03:53:45.217Z,101158.66
2022-07-31T03:56:14.114Z,101163.09
2022-07-31T03:58:42.056Z,101142.84
2022-07-31T04:01:16.594Z,101138.84
2022-07-31T04:03:48.552Z,101130.78
2022-07-31T04:06:16.312Z,101137.84
2022-07-31T04:08:45.473Z,101152.84
2022-07-31T04:11:13.925Z,101171.28
2022-07-31T04:13:41.725Z,101167.91
2022-07-31T04:16:09.554Z,101151.50
2022-07-31T04:18:37.316Z,101153.25
2022-07-31T04:21:05.264Z,101168.31
2022-07-31T04:23:33.061Z,101182.69
2022-07-31T04:26:02.209Z,101181.63
2022-07-31T04:28:30.029Z,101178.47
2022-07-31T04:30:57.987Z,101189.66
2022-07-31T04:33:25.761Z,101180.75
2022-07-31T04:35:54.217Z,101180.72
2022-07-31T04:38:21.988Z,101176.31
2022-07-31T04:40:49.910Z,101186.38
2022-07-31T04:43:19.574Z,101187.16
2022-07-31T04:45:47.379Z,101179.44
2022-07-31T04:48:15.143Z,101163.91
2022-07-31T04:50:42.904Z,101161.56
2022-07-31T04:53:10.639Z,101145.50
2022-07-31T04:55:38.447Z,101136.66
2022-07-31T04:58:06.219Z,101126.16
2022-07-31T05:00:35.461Z,101102.44
2022-07-31T05:03:03.233Z,101086.47
2022-07-31T05:05:31.072Z,101078.25
2022-07-31T05:07:58.808Z,101096.03
2022-07-31T05:10:44.098Z,101102.00
2022-07-31T05:13:11.832Z,101101.03
2022-07-31T05:15:40.947Z,101096.22
2022-07-31T05:18:08.760Z,101086.19
2022-07-31T05:20:36.562Z,101085.63
2022-07-31T05:23:06.699Z,101086.72
2022-07-31T05:25:34.735Z,101059.19
2022-07-31T05:28:02.545Z,101046.66
2022-07-31T05:30:30.893Z,101043.88
2022-07-31T05:33:00.105Z,101032.88
2022-07-31T05:35:27.967Z,101042.38
2022-07-31T05:37:55.782Z,101044.13
2022-07-31T05:40:23.572Z,101051.63
2022-07-31T05:42:51.310Z,101060.03
2022-07-31T05:45:19.253Z,101055.59
2022-07-31T05:47:47.042Z,101046.72
2022-07-31T05:50:16.795Z,101047.19
2022-07-31T05:52:44.566Z,101048.19
2022-07-31T05:55:12.381Z,101037.09
2022-07-31T05:57:40.223Z,101037.44
2022-07-31T06:00:09.754Z,101033.00
2022-07-31T06:02:39.456Z,101032.22
2022-07-31T06:05:07.556Z,101024.78
2022-07-31T06:07:36.707Z,101030.84
2022-07-31T06:10:05.415Z,101032.50
2022-07-31T06:12:33.911Z,101034.00
2022-07-31T06:15:01.826Z,101036.13
2022-07-31T06:17:43.875Z,101041.31
2022-07-31T06:20:14.092Z,101044.00
2022-07-31T06:22:44.900Z,101039.72
2022-07-31T06:25:13.642Z,101047.53
2022-07-31T06:27:42.683Z,101049.81
2022-07-31T06:30:11.990Z,101054.31
2022-07-31T06:32:40.040Z,101047.59
2022-07-31T06:35:08.679Z,101047.72
2022-07-31T06:37:36.476Z,101061.16
2022-07-31T06:40:06.833Z,101042.69
2022-07-31T06:42:34.728Z,101047.88
2022-07-31T06:45:02.549Z,101045.78
2022-07-31T06:47:30.366Z,101052.06
2022-07-31T06:49:58.289Z,101043.22
2022-07-31T06:52:26.516Z,101049.00
2022-07-31T06:54:54.326Z,101055.00
2022-07-31T06:57:23.602Z,101054.91
2022-07-31T06:59:51.454Z,101052.69
2022-07-31T07:02:19.245Z,101061.31
2022-07-31T07:05:05.401Z,101056.75
2022-07-31T07:07:36.365Z,101068.94
2022-07-31T07:10:05.041Z,101065.53
2022-07-31T07:12:34.174Z,101077.72
2022-07-31T07:15:03.517Z,101089.78
2022-07-31T07:17:31.638Z,101087.84
2022-07-31T07:19:59.387Z,101127.00
2022-07-31T07:22:30.030Z,101153.94
2022-07-31T07:25:00.916Z,101145.88
2022-07-31T07:27:28.859Z,101137.88
2022-07-31T07:29:58.558Z,101084.56
2022-07-31T07:32:26.323Z,101085.81
2022-07-31T07:34:59.611Z,101090.81
2022-07-31T07:37:28.571Z,101061.16
2022-07-31T07:39:56.632Z,101063.84
2022-07-31T07:42:24.439Z,101059.63
2022-07-31T07:44:52.212Z,101088.28
2022-07-31T07:47:21.375Z,101085.31
2022-07-31T07:49:49.208Z,101080.50
2022-07-31T07:52:17.039Z,101052.56
2022-07-31T07:54:44.868Z,101066.16
2022-07-31T07:57:16.073Z,101030.25
2022-07-31T07:59:44.335Z,101025.59
2022-07-31T08:02:13.598Z,101009.91
2022-07-31T08:04:47.296Z,101008.69
2022-07-31T08:07:15.489Z,101015.25
2022-07-31T08:09:43.307Z,101045.06
2022-07-31T08:12:11.088Z,101042.06
2022-07-31T08:14:38.853Z,101029.56
2022-07-31T08:17:06.672Z,101031.56
2022-07-31T08:19:34.471Z,101029.50
2022-07-31T08:22:03.795Z,101035.91
2022-07-31T08:24:31.762Z,101048.97
2022-07-31T08:27:16.916Z,101046.88
2022-07-31T08:29:49.391Z,101021.19
2022-07-31T08:32:18.129Z,101046.03
2022-07-31T08:34:46.383Z,101055.78
2022-07-31T08:38:01.430Z,101044.28
2022-07-31T08:40:07.996Z,101052.41
2022-07-31T08:42:36.706Z,101055.84
2022-07-31T08:45:07.613Z,101086.53
2022-07-31T08:47:37.024Z,101083.78
2022-07-31T08:50:06.366Z,101052.41
2022-07-31T08:52:38.146Z,101058.34
2022-07-31T08:55:09.445Z,101066.00
2022-07-31T08:57:37.526Z,101070.34
2022-07-31T09:00:07.339Z,101067.28
2022-07-31T09:02:35.267Z,101087.16
2022-07-31T09:05:03.077Z,101123.94
2022-07-31T09:07:30.929Z,101118.91
2022-07-31T09:10:00.825Z,101134.66
2022-07-31T09:12:33.666Z,101151.25
2022-07-31T09:15:02.631Z,101131.25
2022-07-31T09:17:35.701Z,101206.63
2022-07-31T09:20:04.668Z,101243.75
2022-07-31T09:22:33.862Z,101254.59
2022-07-31T09:25:13.068Z,101259.50
2022-07-31T09:27:41.486Z,101263.28
2022-07-31T09:30:10.469Z,101252.78
2022-07-31T09:32:38.548Z,101227.81
2022-07-31T09:35:12.220Z,101239.03
2022-07-31T09:37:40.758Z,101227.44
2022-07-31T09:40:11.611Z,101178.72
2022-07-31T09:42:46.008Z,101169.00
2022-07-31T09:45:20.945Z,101148.19
2022-07-31T09:47:49.311Z,101171.06
2022-07-31T09:50:25.169Z,101222.09
2022-07-31T09:52:59.832Z,101197.63
2022-07-31T09:55:29.512Z,101205.88
2022-07-31T09:57:59.651Z,101188.22
2022-07-31T10:00:28.912Z,101200.06
2022-07-31T10:02:58.233Z,101214.94
2022-07-31T10:05:27.601Z,101207.47
2022-07-31T10:08:00.174Z,101212.09
2022-07-31T10:10:30.159Z,101193.50
2022-07-31T10:13:03.043Z,101174.66
2022-07-31T10:15:32.370Z,101180.75
2022-07-31T10:18:02.160Z,101233.56
2022-07-31T10:20:31.859Z,101245.88
2022-07-31T10:23:04.893Z,101229.25
2022-07-31T10:25:40.245Z,101197.94
2022-07-31T10:28:10.328Z,101206.47
2022-07-31T10:30:39.106Z,101250.34
2022-07-31T10:33:27.992Z,101230.66
2022-07-31T10:36:02.672Z,101259.69
2022-07-31T10:38:38.525Z,101282.94
2022-07-31T10:41:13.877Z,101274.44
2022-07-31T10:43:47.237Z,101220.22
2022-07-31T10:46:15.086Z,101261.13
2022-07-31T10:48:53.004Z,101285.81
2022-07-31T10:51:22.474Z,101282.38
2022-07-31T10:53:57.767Z,101315.19
2022-07-31T10:56:27.960Z,101315.25
2022-07-31T10:58:58.039Z,101332.38
2022-07-31T11:01:26.631Z,101315.78
2022-07-31T11:04:00.666Z,101328.03
2022-07-31T11:06:39.633Z,101310.56
2022-07-31T11:09:07.504Z,101307.53
2022-07-31T11:11:38.458Z,101312.53
2022-07-31T11:14:06.289Z,101315.97
2022-07-31T11:16:34.171Z,101340.47
2022-07-31T11:19:03.793Z,101345.63
2022-07-31T11:21:40.289Z,101345.19
2022-07-31T11:24:16.372Z,101357.38
2022-07-31T11:26:51.630Z,101354.97
2022-07-31T11:30:00.627Z,101347.75
2022-07-31T11:32:25.169Z,101338.72
2022-07-31T11:34:55.821Z,101343.47
2022-07-31T11:37:25.704Z,101333.94
2022-07-31T11:39:54.829Z,101324.19
2022-07-31T11:42:29.524Z,101287.50
2022-07-31T11:45:10.734Z,101312.44
2022-07-31T11:48:12.478Z,101300.34
2022-07-31T11:50:30.866Z,101322.28
2022-07-31T11:53:04.141Z,101359.34
2022-07-31T11:55:32.228Z,101375.97
2022-07-31T11:58:01.471Z,101358.13
2022-07-31T12:00:30.097Z,101380.22
2022-07-31T12:02:58.987Z,101385.78
2022-07-31T12:05:37.973Z,101377.69
2022-07-31T12:08:08.068Z,101372.56
2022-07-31T12:10:36.413Z,101373.63
2022-07-31T12:13:05.641Z,101372.13
2022-07-31T12:15:33.485Z,101374.56
2022-07-31T12:18:02.221Z,101375.94
2022-07-31T12:20:35.998Z,101376.19
2022-07-31T12:23:06.462Z,101379.19
2022-07-31T12:25:45.733Z,101359.47
2022-07-31T12:28:16.425Z,101370.28
2022-07-31T12:30:44.801Z,101362.69
2022-07-31T12:33:14.141Z,101363.81
2022-07-31T12:35:55.899Z,101359.03
2022-07-31T12:38:48.049Z,101365.22
2022-07-31T12:41:14.230Z,101363.41
2022-07-31T12:43:51.800Z,101360.28
2022-07-31T12:46:22.404Z,101357.50
2022-07-31T12:48:50.564Z,101341.09
2022-07-31T12:51:20.186Z,101345.31
2022-07-31T12:54:09.085Z,101348.94
2022-07-31T12:56:37.259Z,101349.56
2022-07-31T12:59:07.339Z,101351.81
2022-07-31T13:01:35.272Z,101345.72
2022-07-31T13:04:03.545Z,101343.13
2022-07-31T13:06:31.975Z,101332.38
2022-07-31T13:08:59.783Z,101334.59
2022-07-31T13:11:30.378Z,101329.09
2022-07-31T13:14:16.269Z,101321.16
2022-07-31T13:16:44.235Z,101316.59
2022-07-31T13:19:12.909Z,101308.00
2022-07-31T13:21:49.274Z,101320.75
2022-07-31T13:24:18.906Z,101329.44
2022-07-31T13:26:46.810Z,101323.66
2022-07-31T13:29:16.258Z,101316.00
2022-07-31T13:31:45.210Z,101313.44
2022-07-31T13:34:13.140Z,101311.97
2022-07-31T13:36:40.934Z,101319.16
2022-07-31T13:39:09.186Z,101316.41
2022-07-31T13:41:39.211Z,101310.16
2022-07-31T13:44:07.635Z,101306.44
2022-07-31T13:46:37.152Z,101305.38
2022-07-31T13:49:08.677Z,101300.09
2022-07-31T13:51:37.264Z,101282.84
2022-07-31T13:54:05.353Z,101282.56
2022-07-31T13:56:39.290Z,101271.50
2022-07-31T13:59:11.487Z,101279.34
2022-07-31T14:02:03.325Z,101273.66
2022-07-31T14:04:32.137Z,101263.84
2022-07-31T14:07:04.030Z,101252.97
2022-07-31T14:09:34.141Z,101275.00
2022-07-31T14:12:04.599Z,101268.88
2022-07-31T14:14:33.528Z,101265.59
2022-07-31T14:17:03.103Z,101267.00
2022-07-31T14:19:43.939Z,101277.91
2022-07-31T14:22:13.142Z,101271.88
2022-07-31T14:24:41.352Z,101261.06
2022-07-31T14:27:10.936Z,101262.94
2022-07-31T14:29:38.745Z,101253.28
2022-07-31T14:32:08.912Z,101267.00
2022-07-31T14:34:36.868Z,101264.50
2022-07-31T14:37:05.398Z,101267.75
2022-07-31T14:39:33.389Z,101265.88
2022-07-31T14:42:01.245Z,101266.19
2022-07-31T14:44:29.242Z,101258.28
2022-07-31T14:46:57.151Z,101253.47
2022-07-31T14:49:26.482Z,101259.06
2022-07-31T14:52:14.175Z,101253.94
2022-07-31T14:54:41.932Z,101242.19
2022-07-31T14:57:09.793Z,101257.34
2022-07-31T14:59:37.591Z,101250.34
2022-07-31T15:02:05.985Z,101252.97
2022-07-31T15:04:35.132Z,101247.94
2022-07-31T15:07:32.438Z,101237.63
2022-07-31T15:09:51.442Z,101247.28
2022-07-31T15:12:19.819Z,101242.63
2022-07-31T15:14:48.160Z,101252.09
2022-07-31T15:17:15.984Z,101249.88
2022-07-31T15:19:45.134Z,101250.31
2022-07-31T15:22:17.039Z,101253.69
2022-07-31T15:24:48.933Z,101254.97
2022-07-31T15:27:18.086Z,101243.75
2022-07-31T15:30:06.028Z,101234.28
2022-07-31T15:32:33.790Z,101228.06
2022-07-31T15:35:03.387Z,101217.84
2022-07-31T15:37:31.221Z,101210.56
2022-07-31T15:40:03.902Z,101216.44
2022-07-31T15:42:32.211Z,101217.16
2022-07-31T15:45:00.225Z,101214.25
2022-07-31T15:47:27.977Z,101211.63
2022-07-31T15:49:55.935Z,101209.50
2022-07-31T15:52:25.332Z,101202.63
2022-07-31T15:54:53.398Z,101209.09
2022-07-31T15:57:21.424Z,101209.13
2022-07-31T15:59:49.911Z,101207.66
2022-07-31T16:02:18.326Z,101199.09
2022-07-31T16:04:52.569Z,101213.22
2022-07-31T16:08:29.263Z,101209.94
2022-07-31T16:10:16.773Z,101204.75
2022-07-31T16:12:45.593Z,101201.53
2022-07-31T16:15:13.676Z,101189.03
2022-07-31T16:17:41.541Z,101191.75
2022-07-31T16:20:11.956Z,101184.06
2022-07-31T16:22:41.377Z,101182.31
2022-07-31T16:25:11.925Z,101174.69
2022-07-31T16:27:40.621Z,101173.59
2022-07-31T16:30:09.091Z,101188.09
2022-07-31T16:32:36.912Z,101171.81
2022-07-31T16:35:07.106Z,101165.09
2022-07-31T16:37:49.889Z,101167.63
2022-07-31T16:40:26.876Z,101167.88
2022-07-31T16:42:57.560Z,101167.28
2022-07-31T16:45:25.365Z,101166.78
2022-07-31T16:47:53.170Z,101159.25
2022-07-31T16:50:21.033Z,101172.72
2022-07-31T16:52:52.717Z,101162.94
2022-07-31T16:55:59.486Z,101159.69
2022-07-31T16:58:13.710Z,101167.22
2022-07-31T17:00:41.610Z,101160.75
2022-07-31T17:03:58.622Z,101156.97
2022-07-31T17:05:57.515Z,101149.03
2022-07-31T17:08:25.340Z,101142.16
2022-07-31T17:10:55.010Z,101146.94
2022-07-31T17:13:23.507Z,101134.50
2022-07-31T17:15:51.465Z,101136.75
2022-07-31T17:18:24.851Z,101132.47
2022-07-31T17:20:53.206Z,101134.13
2022-07-31T17:23:43.378Z,101123.59
2022-07-31T17:26:21.233Z,101112.31
2022-07-31T17:28:50.729Z,101125.31
2022-07-31T17:31:19.211Z,101132.31
2022-07-31T17:33:59.227Z,101132.47
2022-07-31T17:36:29.809Z,101127.78
2022-07-31T17:38:58.032Z,101121.19
2022-07-31T17:41:27.312Z,101112.19
2022-07-31T17:43:55.279Z,101107.19
2022-07-31T17:46:34.602Z,101114.09
2022-07-31T17:49:05.826Z,101116.97
2022-07-31T17:51:34.226Z,101113.50
2022-07-31T17:54:02.084Z,101104.03
2022-07-31T17:56:31.529Z,101103.22
2022-07-31T17:59:04.516Z,101100.75
2022-07-31T18:01:34.325Z,101094.06
2022-07-31T18:04:02.552Z,101090.81
2022-07-31T18:06:30.697Z,101081.94
2022-07-31T18:09:00.124Z,101080.34
2022-07-31T18:11:28.194Z,101058.88
2022-07-31T18:14:01.110Z,101053.38
2022-07-31T18:16:31.764Z,101002.97
2022-07-31T18:18:59.782Z,100993.56
2022-07-31T18:21:27.791Z,100990.03
2022-07-31T18:23:55.592Z,100974.66
2022-07-31T18:26:24.102Z,100961.69
2022-07-31T18:28:51.932Z,100908.22
2022-07-31T18:31:34.364Z,100883.75
2022-07-31T18:34:03.933Z,100885.81
2022-07-31T18:36:31.977Z,100850.69
2022-07-31T18:39:00.033Z,100857.88
2022-07-31T18:41:28.312Z,100859.97
2022-07-31T18:43:56.650Z,100849.88
2022-07-31T18:46:25.925Z,100833.03
2022-07-31T18:48:55.818Z,100828.03
2022-07-31T18:51:24.517Z,100808.19
2022-07-31T18:53:54.471Z,100790.56
2022-07-31T18:56:23.306Z,100791.66
2022-07-31T18:58:51.347Z,100797.03
2022-07-31T19:01:19.459Z,100808.03
2022-07-31T19:03:48.741Z,100826.44
2022-07-31T19:06:16.659Z,100866.59
2022-07-31T19:08:44.594Z,100880.88
2022-07-31T19:11:12.942Z,100905.56
2022-07-31T19:13:40.685Z,100990.41
2022-07-31T19:16:08.500Z,100997.06
2022-07-31T19:18:37.668Z,101020.66
2022-07-31T19:21:22.849Z,101036.09
2022-07-31T19:23:55.383Z,101097.28
2022-07-31T19:26:23.203Z,101123.16
2022-07-31T19:28:51.340Z,101150.53
2022-07-31T19:31:19.177Z,101163.28
2022-07-31T19:33:47.250Z,101181.09
2022-07-31T19:36:16.407Z,101210.78
2022-07-31T19:38:45.165Z,101237.31
2022-07-31T19:41:14.656Z,101259.28
2022-07-31T19:43:44.597Z,101274.31
2022-07-31T19:46:12.992Z,101280.22
2022-07-31T19:48:41.928Z,101289.88
2022-07-31T19:51:09.885Z,101298.50
2022-07-31T19:53:39.342Z,101302.06
2022-07-31T19:56:07.303Z,101285.19
2022-07-31T19:58:35.708Z,101280.00
2022-07-31T20:01:03.885Z,101292.63
2022-07-31T20:03:31.949Z,101271.13
2022-07-31T20:05:59.885Z,101269.97
2022-07-31T20:08:32.819Z,101249.41
2022-07-31T20:11:03.905Z,101273.78
2022-07-31T20:13:32.943Z,101269.50
2022-07-31T20:16:01.222Z,101259.19
2022-07-31T20:18:29.614Z,101261.34
2022-07-31T20:20:59.626Z,101257.59
2022-07-31T20:23:27.739Z,101253.56
2022-07-31T20:25:55.923Z,101240.63
2022-07-31T20:28:25.095Z,101234.09
2022-07-31T20:30:52.933Z,101239.56
2022-07-31T20:33:21.089Z,101250.59
2022-07-31T20:35:50.302Z,101235.91
2022-07-31T20:38:18.731Z,101245.88
2022-07-31T20:40:54.016Z,101256.94
2022-07-31T20:43:23.289Z,101246.91
2022-07-31T20:45:52.899Z,101261.13
2022-07-31T20:48:24.148Z,101267.69
2022-07-31T20:50:52.720Z,101269.84
2022-07-31T20:53:21.571Z,101261.00
2022-07-31T20:55:50.308Z,101261.06
2022-07-31T20:58:18.691Z,101278.59
2022-07-31T21:00:47.528Z,101282.59
2022-07-31T21:03:17.508Z,101271.63
2022-07-31T21:05:45.829Z,101283.47
2022-07-31T21:08:13.821Z,101287.47
2022-07-31T21:10:42.057Z,101291.09
2022-07-31T21:13:10.248Z,101287.75
2022-07-31T21:15:41.871Z,101292.03
2022-07-31T21:18:12.519Z,101289.56
2022-07-31T21:20:52.480Z,101283.53
2022-07-31T21:23:22.565Z,101279.94
2022-07-31T21:25:51.434Z,101290.06
2022-07-31T21:28:19.987Z,101302.28
2022-07-31T21:30:48.709Z,101303.88
2022-07-31T21:33:18.161Z,101282.44
2022-07-31T21:35:48.154Z,101294.34
2022-07-31T21:38:16.778Z,101300.75
2022-07-31T21:40:45.565Z,101299.06
2022-07-31T21:43:16.005Z,101312.19
2022-07-31T21:45:55.220Z,101299.59
2022-07-31T21:48:25.596Z,101298.25
2022-07-31T21:50:55.690Z,101293.69
2022-07-31T21:53:24.076Z,101293.56
2022-07-31T21:55:51.846Z,101298.13
2022-07-31T21:58:19.864Z,101296.28
2022-07-31T22:00:48.152Z,101301.06
2022-07-31T22:03:16.010Z,101309.78
2022-07-31T22:05:57.701Z,101304.41
2022-07-31T22:08:26.881Z,101318.41
2022-07-31T22:10:54.809Z,101314.78
2022-07-31T22:13:22.629Z,101308.38
2022-07-31T22:15:59.811Z,101319.69
2022-07-31T22:18:28.801Z,101322.22
2022-07-31T22:20:57.127Z,101316.50
2022-07-31T22:23:27.393Z,101321.44
2022-07-31T22:25:55.706Z,101318.84
2022-07-31T22:28:24.965Z,101310.53
2022-07-31T22:30:53.748Z,101319.50
2022-07-31T22:33:21.938Z,101320.28
2022-07-31T22:36:00.016Z,101319.44
2022-07-31T22:38:31.618Z,101313.22
2022-07-31T22:41:00.082Z,101313.81
2022-07-31T22:44:09.863Z,101315.81
2022-07-31T22:46:16.489Z,101319.97
2022-07-31T22:48:46.371Z,101318.19
2022-07-31T22:51:15.418Z,101323.25
2022-07-31T22:53:45.547Z,101311.75
2022-07-31T22:56:16.875Z,101307.59
2022-07-31T22:58:44.732Z,101308.81
2022-07-31T23:01:12.545Z,101310.75
2022-07-31T23:03:40.364Z,101306.13
2022-07-31T23:06:31.414Z,101296.09
2022-07-31T23:08:57.796Z,101296.47
2022-07-31T23:11:25.855Z,101294.47
2022-07-31T23:13:53.916Z,101305.03
2022-07-31T23:16:21.965Z,101298.91
2022-07-31T23:18:50.350Z,101292.38
2022-07-31T23:21:18.646Z,101289.59
2022-07-31T23:23:49.056Z,101293.19
2022-07-31T23:26:19.529Z,101301.19
2022-07-31T23:28:48.022Z,101290.22
2022-07-31T23:31:15.891Z,101299.91
2022-07-31T23:33:44.157Z,101296.38
2022-07-31T23:36:12.313Z,101302.88
2022-07-31T23:38:40.567Z,101288.19
2022-07-31T23:41:08.486Z,101297.59
2022-07-31T23:43:36.945Z,101298.13
2022-07-31T23:46:05.261Z,101291.47
2022-07-31T23:48:33.267Z,101290.78
2022-07-31T23:51:01.103Z,101289.69
2022-07-31T23:53:28.910Z,101286.22
2022-07-31T23:55:56.773Z,101290.88
2022-07-31T23:58:24.560Z,101295.94
